createdAt,value
2023-03-01T00:00:57.010Z,-2.44
2023-03-01T00:04:02.121Z,-2.84
2023-03-01T00:07:07.697Z,-2.93
2023-03-01T00:10:14.499Z,-2.77
2023-03-01T00:13:18.634Z,-2.89
2023-03-01T00:16:25.535Z,-2.83
2023-03-01T00:19:31.028Z,-2.88
2023-03-01T00:22:35.701Z,-3.21
2023-03-01T00:25:44.921Z,-3.07
2023-03-01T00:28:49.962Z,-3.05
2023-03-01T00:31:55.532Z,-3.03
2023-03-01T00:35:01.058Z,-3.01
2023-03-01T00:38:06.123Z,-3.24
2023-03-01T00:41:15.293Z,-3.02
2023-03-01T00:44:20.877Z,-3.13
2023-03-01T00:47:26.214Z,-3.25
2023-03-01T00:50:31.565Z,-3.39
2023-03-01T00:53:38.131Z,-3.50
2023-03-01T00:56:44.121Z,-3.43
2023-03-01T00:59:49.545Z,-3.69
2023-03-01T01:02:54.027Z,-3.80
2023-03-01T01:05:59.221Z,-3.73
2023-03-01T01:09:07.763Z,-3.81
2023-03-01T01:12:14.784Z,-4.05
2023-03-01T01:15:20.517Z,-4.16
2023-03-01T01:18:25.257Z,-4.07
2023-03-01T01:21:31.090Z,-3.91
2023-03-01T01:24:36.029Z,-3.75
2023-03-01T01:27:41.161Z,-4.00
2023-03-01T01:30:46.032Z,-4.16
2023-03-01T01:33:50.618Z,-4.19
2023-03-01T01:36:56.818Z,-4.11
2023-03-01T01:40:05.175Z,-3.94
2023-03-01T01:43:22.564Z,-4.15
2023-03-01T01:46:32.943Z,-4.15
2023-03-01T01:49:41.821Z,-4.00
2023-03-01T01:52:50.947Z,-4.31
2023-03-01T01:55:59.174Z,-4.15
2023-03-01T01:59:05.379Z,-4.18
2023-03-01T02:02:10.699Z,-4.06
2023-03-01T02:05:28.200Z,-4.26
2023-03-01T02:08:38.783Z,-4.45
2023-03-01T02:11:45.910Z,-4.31
2023-03-01T02:14:52.632Z,-4.49
2023-03-01T02:17:58.984Z,-4.19
2023-03-01T02:21:13.305Z,-4.28
2023-03-01T02:24:31.419Z,-4.24
2023-03-01T02:27:48.357Z,-4.64
2023-03-01T02:31:14.006Z,-4.63
2023-03-01T02:34:23.569Z,-4.65
2023-03-01T02:37:29.298Z,-4.46
2023-03-01T02:40:46.084Z,-4.27
2023-03-01T02:43:50.844Z,-4.44
2023-03-01T02:47:00.474Z,-3.99
2023-03-01T02:50:20.703Z,-4.61
2023-03-01T02:53:35.124Z,-4.58
2023-03-01T02:56:40.383Z,-4.79
2023-03-01T02:59:46.080Z,-4.58
2023-03-01T03:02:54.271Z,-4.41
2023-03-01T03:06:01.865Z,-4.21
2023-03-01T03:09:09.678Z,-4.31
2023-03-01T03:12:13.530Z,-4.32
2023-03-01T03:15:19.014Z,-4.61
2023-03-01T03:18:28.069Z,-4.72
2023-03-01T03:21:33.298Z,-4.78
2023-03-01T03:24:39.535Z,-4.80
2023-03-01T03:27:46.191Z,-4.55
2023-03-01T03:30:51.022Z,-4.68
2023-03-01T03:33:57.303Z,-4.78
2023-03-01T03:37:01.794Z,-4.89
2023-03-01T03:40:16.401Z,-4.82
2023-03-01T03:43:23.164Z,-4.84
2023-03-01T03:46:27.772Z,-4.52
2023-03-01T03:49:33.147Z,-4.67
2023-03-01T03:52:38.740Z,-4.61
2023-03-01T03:55:45.642Z,-4.83
2023-03-01T03:58:50.199Z,-4.82
2023-03-01T04:01:54.769Z,-4.59
2023-03-01T04:04:59.944Z,-4.71
2023-03-01T04:08:08.275Z,-4.73
2023-03-01T04:11:34.350Z,-4.38
2023-03-01T04:14:38.449Z,-4.60
2023-03-01T04:17:45.332Z,-4.71
2023-03-01T04:20:53.125Z,-4.73
2023-03-01T04:23:57.875Z,-4.97
2023-03-01T04:27:04.241Z,-5.04
2023-03-01T04:30:11.026Z,-4.97
2023-03-01T04:33:15.715Z,-4.74
2023-03-01T04:36:23.748Z,-4.68
2023-03-01T04:39:29.230Z,-4.61
2023-03-01T04:42:33.941Z,-4.79
2023-03-01T04:45:39.330Z,-4.79
2023-03-01T04:48:46.548Z,-4.94
2023-03-01T04:51:52.435Z,-4.82
2023-03-01T04:54:57.193Z,-4.94
2023-03-01T04:58:00.878Z,-5.05
2023-03-01T05:01:16.304Z,-4.84
2023-03-01T05:04:21.049Z,-4.63
2023-03-01T05:07:27.849Z,-4.73
2023-03-01T05:10:36.055Z,-4.96
2023-03-01T05:13:41.222Z,-4.98
2023-03-01T05:16:48.251Z,-5.34
2023-03-01T05:19:52.338Z,-5.41
2023-03-01T05:23:06.484Z,-5.26
2023-03-01T05:26:27.371Z,-5.38
2023-03-01T05:29:37.578Z,-5.35
2023-03-01T05:32:47.057Z,-5.14
2023-03-01T05:35:52.934Z,-5.03
2023-03-01T05:38:59.077Z,-5.05
2023-03-01T05:42:04.515Z,-5.03
2023-03-01T05:45:10.726Z,-4.83
2023-03-01T05:48:15.871Z,-5.08
2023-03-01T05:51:19.931Z,-4.98
2023-03-01T05:54:25.920Z,-5.04
2023-03-01T05:57:31.357Z,-5.18
2023-03-01T06:00:37.306Z,-4.67
2023-03-01T06:03:42.880Z,-4.87
2023-03-01T06:06:47.384Z,-5.00
2023-03-01T06:09:52.552Z,-4.99
2023-03-01T06:12:57.705Z,-4.90
2023-03-01T06:16:02.322Z,-5.07
2023-03-01T06:19:07.898Z,-4.89
2023-03-01T06:22:13.743Z,-4.58
2023-03-01T06:25:22.744Z,-4.80
2023-03-01T06:28:28.418Z,-4.41
2023-03-01T06:32:50.747Z,-4.63
2023-03-01T06:36:41.356Z,-4.43
2023-03-01T06:39:54.937Z,-4.13
2023-03-01T06:44:14.753Z,-4.22
2023-03-01T06:48:45.139Z,-3.69
2023-03-01T06:51:51.125Z,-3.65
2023-03-01T06:54:56.701Z,-3.71
2023-03-01T06:59:13.754Z,-3.66
2023-03-01T07:03:08.458Z,-3.44
2023-03-01T07:11:15.761Z,-3.07
2023-03-01T07:25:44.144Z,-2.64
2023-03-01T07:28:49.493Z,-2.03
2023-03-01T07:31:53.147Z,-1.87
2023-03-01T07:34:57.864Z,-1.92
2023-03-01T07:38:03.235Z,-1.86
2023-03-01T07:41:10.886Z,-1.93
2023-03-01T07:44:16.507Z,-1.70
2023-03-01T07:47:22.070Z,-1.53
2023-03-01T07:50:27.901Z,-1.45
2023-03-01T07:53:35.213Z,-1.41
2023-03-01T07:56:42.482Z,-1.39
2023-03-01T07:59:48.228Z,-1.20
2023-03-01T08:02:54.171Z,-0.98
2023-03-01T08:06:02.390Z,-0.68
2023-03-01T08:09:09.032Z,-0.60
2023-03-01T08:12:17.548Z,-0.65
2023-03-01T08:15:23.838Z,-0.49
2023-03-01T08:18:29.928Z,-0.38
2023-03-01T08:21:37.100Z,-0.30
2023-03-01T08:24:43.138Z,-0.19
2023-03-01T08:27:50.614Z,-0.23
2023-03-01T08:30:56.344Z,-0.12
2023-03-01T08:34:04.046Z,-0.32
2023-03-01T08:37:10.978Z,-0.08
2023-03-01T08:40:16.707Z,-0.14
2023-03-01T08:43:26.481Z,-0.02
2023-03-01T08:46:34.851Z,0.02
2023-03-01T08:49:40.767Z,0.14
2023-03-01T08:52:46.008Z,0.18
2023-03-01T08:55:51.459Z,0.16
2023-03-01T08:58:58.497Z,0.31
2023-03-01T09:02:04.466Z,0.38
2023-03-01T09:05:10.659Z,0.23
2023-03-01T09:08:15.150Z,0.29
2023-03-01T09:11:22.534Z,0.45
2023-03-01T09:14:28.835Z,0.59
2023-03-01T09:17:34.425Z,0.62
2023-03-01T09:20:38.484Z,0.68
2023-03-01T09:23:44.251Z,0.78
2023-03-01T09:26:50.757Z,0.70
2023-03-01T09:29:58.685Z,0.95
2023-03-01T09:33:03.365Z,0.93
2023-03-01T09:36:11.589Z,0.95
2023-03-01T09:39:16.442Z,1.22
2023-03-01T09:42:22.275Z,1.36
2023-03-01T09:45:37.901Z,1.58
2023-03-01T09:48:48.207Z,1.49
2023-03-01T09:52:01.348Z,1.98
2023-03-01T09:55:13.291Z,1.90
2023-03-01T09:58:38.459Z,2.14
2023-03-01T10:01:54.471Z,2.44
2023-03-01T10:05:08.183Z,2.30
2023-03-01T10:08:37.587Z,2.36
2023-03-01T10:11:48.259Z,2.32
2023-03-01T10:15:00.660Z,2.58
2023-03-01T10:18:14.971Z,2.75
2023-03-01T10:21:22.518Z,2.56
2023-03-01T10:24:38.700Z,2.63
2023-03-01T10:27:53.804Z,2.86
2023-03-01T10:31:01.868Z,3.01
2023-03-01T10:34:14.104Z,2.85
2023-03-01T10:37:23.057Z,3.24
2023-03-01T10:40:29.018Z,3.48
2023-03-01T10:43:46.512Z,3.32
2023-03-01T10:47:02.317Z,3.57
2023-03-01T10:50:26.029Z,3.51
2023-03-01T10:53:34.938Z,3.74
2023-03-01T10:56:50.448Z,3.56
2023-03-01T11:00:05.689Z,3.61
2023-03-01T11:03:16.356Z,3.80
2023-03-01T11:06:27.315Z,3.61
2023-03-01T11:09:38.807Z,3.81
2023-03-01T11:12:45.407Z,3.66
2023-03-01T11:16:01.924Z,3.81
2023-03-01T11:19:19.292Z,3.96
2023-03-01T11:22:26.087Z,3.91
2023-03-01T11:25:36.133Z,4.40
2023-03-01T11:28:45.180Z,4.54
2023-03-01T11:31:57.631Z,4.70
2023-03-01T11:35:07.299Z,4.69
2023-03-01T11:38:23.515Z,5.10
2023-03-01T11:41:34.356Z,5.28
2023-03-01T11:44:41.551Z,5.40
2023-03-01T11:48:03.972Z,5.35
2023-03-01T11:51:11.778Z,5.87
2023-03-01T11:54:33.043Z,5.45
2023-03-01T11:57:51.994Z,4.54
2023-03-01T12:01:10.960Z,4.64
2023-03-01T12:04:37.540Z,4.92
2023-03-01T12:07:48.607Z,5.45
2023-03-01T12:11:05.949Z,5.39
2023-03-01T12:14:38.888Z,4.70
2023-03-01T12:17:56.868Z,5.35
2023-03-01T12:21:15.072Z,5.71
2023-03-01T12:24:44.188Z,5.71
2023-03-01T12:28:22.136Z,6.74
2023-03-01T12:32:09.068Z,5.96
2023-03-01T12:36:12.820Z,6.22
2023-03-01T12:39:31.023Z,6.33
2023-03-01T12:42:40.231Z,6.00
2023-03-01T12:45:55.739Z,6.27
2023-03-01T12:49:10.350Z,5.30
2023-03-01T12:52:21.658Z,5.75
2023-03-01T12:55:33.737Z,6.24
2023-03-01T12:58:50.124Z,6.67
2023-03-01T13:02:07.932Z,5.77
2023-03-01T13:05:26.860Z,5.39
2023-03-01T13:08:39.583Z,5.50
2023-03-01T13:11:45.419Z,5.43
2023-03-01T13:14:50.036Z,6.22
2023-03-01T13:17:58.025Z,6.30
2023-03-01T13:21:07.202Z,5.31
2023-03-01T13:24:29.858Z,5.78
2023-03-01T13:27:35.655Z,5.92
2023-03-01T13:30:44.885Z,5.94
2023-03-01T13:33:51.372Z,6.07
2023-03-01T13:37:11.763Z,5.40
2023-03-01T13:40:53.241Z,6.19
2023-03-01T13:43:57.646Z,5.81
2023-03-01T13:47:15.367Z,5.96
2023-03-01T13:50:25.709Z,6.13
2023-03-01T13:53:36.709Z,6.11
2023-03-01T13:56:42.440Z,6.82
2023-03-01T13:59:50.074Z,6.68
2023-03-01T14:03:07.171Z,6.94
2023-03-01T14:06:20.906Z,6.70
2023-03-01T14:09:33.320Z,6.76
2023-03-01T14:12:47.302Z,6.57
2023-03-01T14:16:08.897Z,6.47
2023-03-01T14:19:32.747Z,6.18
2023-03-01T14:22:44.256Z,5.67
2023-03-01T14:25:51.579Z,5.92
2023-03-01T14:28:57.258Z,6.12
2023-03-01T14:32:23.479Z,5.87
2023-03-01T14:35:30.811Z,5.74
2023-03-01T14:38:40.937Z,5.97
2023-03-01T14:41:46.020Z,6.01
2023-03-01T14:44:52.839Z,5.83
2023-03-01T14:48:00.660Z,6.02
2023-03-01T14:51:08.197Z,5.62
2023-03-01T14:54:24.596Z,5.77
2023-03-01T14:57:29.043Z,5.53
2023-03-01T15:00:36.812Z,5.64
2023-03-01T15:03:45.576Z,5.34
2023-03-01T15:06:53.587Z,5.29
2023-03-01T15:10:01.150Z,5.16
2023-03-01T15:13:14.252Z,4.85
2023-03-01T15:16:22.444Z,4.72
2023-03-01T15:19:30.320Z,4.64
2023-03-01T15:22:34.767Z,4.79
2023-03-01T15:25:46.733Z,4.32
2023-03-01T15:28:54.391Z,4.10
2023-03-01T15:32:05.142Z,4.27
2023-03-01T15:35:44.193Z,3.94
2023-03-01T15:38:59.374Z,3.77
2023-03-01T15:42:06.708Z,3.53
2023-03-01T15:45:12.036Z,3.54
2023-03-01T15:48:21.157Z,3.33
2023-03-01T15:51:37.689Z,3.44
2023-03-01T15:54:42.556Z,3.34
2023-03-01T15:57:47.814Z,3.36
2023-03-01T16:01:01.105Z,2.81
2023-03-01T16:04:06.611Z,2.68
2023-03-01T16:07:11.838Z,2.76
2023-03-01T16:10:15.795Z,2.39
2023-03-01T16:13:21.884Z,2.34
2023-03-01T16:16:28.244Z,2.24
2023-03-01T16:19:33.726Z,2.18
2023-03-01T16:22:40.265Z,1.94
2023-03-01T16:25:43.906Z,2.05
2023-03-01T16:28:50.200Z,2.22
2023-03-01T16:31:54.930Z,2.20
2023-03-01T16:34:59.576Z,2.01
2023-03-01T16:38:03.569Z,2.07
2023-03-01T16:41:14.470Z,2.02
2023-03-01T16:44:19.701Z,1.45
2023-03-01T16:47:24.876Z,1.25
2023-03-01T16:50:28.765Z,1.10
2023-03-01T16:53:37.041Z,1.19
2023-03-01T16:56:41.669Z,1.03
2023-03-01T16:59:46.953Z,1.02
2023-03-01T17:02:54.477Z,0.86
2023-03-01T17:05:58.387Z,-0.09
2023-03-01T17:09:02.514Z,-0.11
2023-03-01T17:12:06.699Z,-0.06
2023-03-01T17:15:13.368Z,0.12
2023-03-01T17:18:19.773Z,-0.10
2023-03-01T17:21:23.810Z,-0.07
2023-03-01T17:24:28.408Z,0.01
2023-03-01T17:27:35.735Z,-0.06
2023-03-01T17:30:43.886Z,0.20
2023-03-01T17:33:50.188Z,0.28
2023-03-01T17:36:55.553Z,0.16
2023-03-01T17:40:00.262Z,-0.16
2023-03-01T17:43:04.859Z,-0.56
2023-03-01T17:46:10.060Z,-0.48
2023-03-01T17:49:15.354Z,-0.53
2023-03-01T17:52:23.881Z,-0.66
2023-03-01T17:55:29.410Z,-0.65
2023-03-01T17:58:34.633Z,-1.00
2023-03-01T18:01:44.093Z,-0.91
2023-03-01T18:04:50.432Z,-0.72
2023-03-01T18:07:55.195Z,-0.54
2023-03-01T18:11:00.606Z,-0.74
2023-03-01T18:14:05.928Z,-0.88
2023-03-01T18:17:12.388Z,-1.03
2023-03-01T18:20:19.221Z,-0.98
2023-03-01T18:23:26.287Z,-0.66
2023-03-01T18:26:31.375Z,-0.83
2023-03-01T18:29:38.833Z,-0.82
2023-03-01T18:32:45.291Z,-0.96
2023-03-01T18:35:50.613Z,-0.84
2023-03-01T18:38:57.054Z,-0.95
2023-03-01T18:42:01.122Z,-0.82
2023-03-01T18:45:06.332Z,-1.09
2023-03-01T18:48:15.407Z,-1.31
2023-03-01T18:51:24.119Z,-1.10
2023-03-01T18:54:28.253Z,-1.47
2023-03-01T18:57:34.695Z,-1.70
2023-03-01T19:00:39.096Z,-1.43
2023-03-01T19:03:45.750Z,-1.22
2023-03-01T19:06:50.404Z,-1.25
2023-03-01T19:09:56.062Z,-1.22
2023-03-01T19:12:59.906Z,-1.44
2023-03-01T19:16:08.831Z,-1.28
2023-03-01T19:19:16.754Z,-1.47
2023-03-01T19:22:23.245Z,-1.42
2023-03-01T19:25:27.998Z,-1.23
2023-03-01T19:28:31.858Z,-1.66
2023-03-01T19:31:40.156Z,-1.71
2023-03-01T19:34:46.774Z,-1.89
2023-03-01T19:37:50.417Z,-1.58
2023-03-01T19:40:54.238Z,-1.17
2023-03-01T19:44:02.880Z,-1.65
2023-03-01T19:47:06.840Z,-1.67
2023-03-01T19:50:16.965Z,-1.53
2023-03-01T19:53:21.950Z,-1.30
2023-03-01T19:56:28.275Z,-1.17
2023-03-01T19:59:32.883Z,-1.41
2023-03-01T20:02:37.549Z,-1.84
2023-03-01T20:05:44.355Z,-1.71
2023-03-01T20:08:49.781Z,-1.56
2023-03-01T20:11:53.588Z,-1.56
2023-03-01T20:14:58.898Z,-1.71
2023-03-01T20:18:03.633Z,-1.78
2023-03-01T20:21:23.664Z,-1.98
2023-03-01T20:24:28.015Z,-1.77
2023-03-01T20:27:31.848Z,-1.87
2023-03-01T20:30:38.435Z,-1.98
2023-03-01T20:33:45.213Z,-2.12
2023-03-01T20:36:51.085Z,-2.16
2023-03-01T20:39:56.664Z,-2.38
2023-03-01T20:43:01.591Z,-2.15
2023-03-01T20:46:06.917Z,-2.22
2023-03-01T20:49:11.864Z,-2.45
2023-03-01T20:52:19.722Z,-2.52
2023-03-01T20:55:24.874Z,-2.57
2023-03-01T20:58:33.889Z,-2.59
2023-03-01T21:01:40.389Z,-2.41
2023-03-01T21:04:45.001Z,-2.38
2023-03-01T21:07:52.788Z,-2.57
2023-03-01T21:10:58.570Z,-2.00
2023-03-01T21:14:05.390Z,-2.17
2023-03-01T21:17:10.558Z,-2.20
2023-03-01T21:20:15.437Z,-2.66
2023-03-01T21:23:21.306Z,-2.62
2023-03-01T21:26:30.913Z,-2.53
2023-03-01T21:29:38.709Z,-2.55
2023-03-01T21:32:43.761Z,-2.37
2023-03-01T21:35:49.259Z,-2.62
2023-03-01T21:38:59.760Z,-2.84
2023-03-01T21:42:06.171Z,-2.62
2023-03-01T21:45:11.714Z,-2.62
2023-03-01T21:48:16.298Z,-2.81
2023-03-01T21:51:24.963Z,-2.93
2023-03-01T21:54:31.493Z,-2.57
2023-03-01T21:57:44.016Z,-2.60
2023-03-01T22:00:49.967Z,-2.40
2023-03-01T22:03:55.299Z,-2.56
2023-03-01T22:07:04.001Z,-2.56
2023-03-01T22:10:10.493Z,-2.35
2023-03-01T22:13:15.044Z,-2.37
2023-03-01T22:16:21.356Z,-2.69
2023-03-01T22:19:27.023Z,-2.65
2023-03-01T22:22:35.248Z,-2.41
2023-03-01T22:25:44.123Z,-2.61
2023-03-01T22:28:48.665Z,-2.30
2023-03-01T22:31:56.241Z,-2.75
2023-03-01T22:35:02.597Z,-2.89
2023-03-01T22:38:07.263Z,-3.05
2023-03-01T22:41:13.569Z,-2.98
2023-03-01T22:44:21.784Z,-2.99
2023-03-01T22:47:26.461Z,-2.76
2023-03-01T22:50:31.081Z,-2.78
2023-03-01T22:53:35.849Z,-3.02
2023-03-01T22:56:45.197Z,-2.80
2023-03-01T22:59:49.787Z,-3.17
2023-03-01T23:02:54.791Z,-3.11
2023-03-01T23:06:03.610Z,-3.15
2023-03-01T23:09:08.508Z,-3.00
2023-03-01T23:12:14.703Z,-3.07
2023-03-01T23:15:19.217Z,-3.20
2023-03-01T23:18:24.261Z,-3.33
2023-03-01T23:21:28.718Z,-3.20
2023-03-01T23:24:35.626Z,-3.03
2023-03-01T23:27:41.900Z,-2.96
2023-03-01T23:30:55.331Z,-3.05
2023-03-01T23:33:59.949Z,-3.08
2023-03-01T23:37:05.048Z,-3.08
2023-03-01T23:40:12.153Z,-2.98
2023-03-01T23:43:18.370Z,-3.07
2023-03-01T23:46:25.704Z,-3.13
2023-03-01T23:49:30.393Z,-3.29
2023-03-01T23:52:40.272Z,-3.29
2023-03-01T23:55:49.262Z,-3.44
2023-03-01T23:58:56.718Z,-3.29
